map of WPU home
Great Circle Mapper logo
WPU - Airport
Location
City:  Puerto Williams, Magallanes, Chile
Name:Guardiamarina Zaņartu
ICAO / IATA:SCGZ / WPU

Details
Type:Airport (Aerodrome, Airfield)
Latitude:54°55'52"S (-54.931071)
Longitude:67°37'35"W (-67.626260)
Datum:WGS 1984
Elevation:88 ft (27 m)
Variation:12.11°E (WMM2015 magnetic declination)
-0.07° annual change
Runways:1
Longest:4724 × 95 ft (1440 × 29 m), paved

Time
Time Zone:UTC-4 (DST-3)

Weather
METAR:SCGZ 061800Z 25009KT 9999 FEW060 SCT066 BKN083 20/06 Q1014

Related Locations
Nearby:
Farthest:UIUR: 12387 mi / 19935 km
Varvarinsk [Varvarinsk Airport], BU, RU

Find:

   beyond  
but within

Other Information
Maps:
NOTAMs:
Links:
Sources:

  
flag of Chile
flag of Magallanes
  

Sectional Chart

Flight Planning
at skyvector.com

Satellite Image

Google Maps Satellite view

 

Copyright © 2004-2016 Karl L. Swartz. All rights reserved.
The Great Circle Mapper name and logo are trademarks of the Great Circle Mapper.
All other trademarks mentioned herein belong to their respective owners.
Please see credits for attibutions and further copyright information.

  Follow gcmap on Facebook Follow gcmap on Twitter Follow gcmap on Google+ GCmap on LinkedIn

hCard Microformat

Geo Microformat